Domov               UVHVVR             MKGP            O straneh              
ZDRAVSTVENO VARSTVO RASTLIN
  MREŽA AGROMET. POSTAJ
 ► PROGNOSTIČNA OBVESTILA
AGROMETEOROLOŠKI PODATKI -
ARSO
OBVLADOVANJE TVEGANJ ZARADI
NEUGODNIH VREMENSKIH RAZMER
  ► NARAVNE NESREČE
  ► SUŠA/MOČA
  ► NAMAKANJE
  ► ŽLED (gozdarstvo)
KARTOGRAFSKI PRIKAZI
SPLETNE POVEZAVE
PROJEKTI IN PUBLIKACIJE

AGROMETEOROLOŠKA MREŽA: VREMENSKE POSTAJE IN FENOLOŠKA OPAZOVANJA

Pregled podatkov za lokacijo Dragonja, meteorološka postaja 42389

Pregled senzorjev na lokaciji

ID Ime Zadnja
vrednost
Datum
zadnje
spremembe
Tip
senzorja
4389 Omočenost lista (U) 0 U 26.3.2019 18:00 A730WET
2098 Padavine (mm) 0 mm 26.3.2019 18:00 Rain-O-Matic
2096 Relativna vlaga 2 m (% RH) 27,86 % RH 26.3.2019 18:00 50YA
2095 Temperatura 2 m (°C) 13,33 °C 26.3.2019 18:00 50YA

Pregled podatkov zadnjih 24 ur

Zap.
št.
Datum in čas Dragonja
Omočenost
lista
Padavine Relativna
vlaga
2
m
Temperatura
2
m
1 26.3.2019 17:30
2 26.3.2019 17:00 0 0 27,9 13,3
3 26.3.2019 16:30 0 0 27,8 13,5
4 26.3.2019 16:00 0 0 27 14
5 26.3.2019 15:30 0 0 28 13,7
6 26.3.2019 15:00 0 0 28,3 14,1
7 26.3.2019 14:30 0 0 29,3 14,3
8 26.3.2019 14:00 0 0 30,5 14,3
9 26.3.2019 13:30 0 0 30 13,9
10 26.3.2019 13:00 0 0 31,4 14,1
11 26.3.2019 12:30 0 0 31,8 13,6
12 26.3.2019 12:00 0 0 32,1 13,4
13 26.3.2019 11:30 0 0 32,6 12,6
14 26.3.2019 11:00 0 0 30,7 12,6
15 26.3.2019 10:30 0 0 30,2 12
16 26.3.2019 10:00 0 0 31,1 11,8
17 26.3.2019 09:30 0 0 32,4 11,8
18 26.3.2019 09:00 0 0 33,5 11,1
19 26.3.2019 08:30 0 0 37,2 10,4
20 26.3.2019 08:00 0 0 39,5 9,8
21 26.3.2019 07:30 0 0 41,4 9,1
22 26.3.2019 07:00 0 0 43,8 8,5
23 26.3.2019 06:30 0 0 42,6 8,5
24 26.3.2019 06:00 0 0 40,4 8,7
25 26.3.2019 05:30 0 0 40,2 8,8
26 26.3.2019 05:00 0 0 42,5 8,6
27 26.3.2019 04:30 0 0 43,9 8,6
28 26.3.2019 04:00 0 0 43,4 8,7
29 26.3.2019 03:30 0 0 43,3 8,8
30 26.3.2019 03:00 0 0 40,5 9,1
31 26.3.2019 02:30 0 0 38,3 9,3
32 26.3.2019 02:00 0 0 45,9 8,6
33 26.3.2019 01:30 0 0 50,2 8,2
34 26.3.2019 01:00 0 0 52,3 7,9
35 26.3.2019 00:30 0 0 59,2 7,4
36 26.3.2019 00:00 9 0 66,5 7,1
37 25.3.2019 23:30 10 0 74,7 6,6
38 25.3.2019 23:00 10 0,8 78,2 6,3
39 25.3.2019 22:30 10 1,8 74,8 6,9
40 25.3.2019 22:00 10 0,2 58,1 9,2
41 25.3.2019 21:30 6 0 51,1 11,5
42 25.3.2019 21:00 0 0 47,7 13,3
43 25.3.2019 20:30 0 0 53,4 13,6
44 25.3.2019 20:00 0 0 51,8 13,9
45 25.3.2019 19:30 0 0 56,4 13
46 25.3.2019 19:00 0 0 51,7 13,6
47 25.3.2019 18:30 0 0 43 14,8
48 25.3.2019 18:00 0 0 34,7 17,3
© 2011 Ministrstvo za kmetijstvo, gozdarstvo in prehrano. Vse pravice pridržane.